sensor_id;sensor_type;location;lat;lon;timestamp;pressure;altitude;pressure_sealevel;temperature;humidity
9415;BME280;4746;35.664;139.738;2022-08-19T00:02:18;99311.53;;;32.75;35.02
9415;BME280;4746;35.664;139.738;2022-08-19T00:04:45;99314.69;;;32.79;35.16
9415;BME280;4746;35.664;139.738;2022-08-19T00:07:15;99313.56;;;32.81;35.04
9415;BME280;4746;35.664;139.738;2022-08-19T00:09:42;99314.69;;;32.79;35.08
9415;BME280;4746;35.664;139.738;2022-08-19T00:12:10;99310.78;;;32.83;35.08
9415;BME280;4746;35.664;139.738;2022-08-19T00:14:39;99310.78;;;32.83;35.51
9415;BME280;4746;35.664;139.738;2022-08-19T00:17:08;99317.47;;;32.87;35.33
9415;BME280;4746;35.664;139.738;2022-08-19T00:19:38;99319.50;;;32.93;35.36
9415;BME280;4746;35.664;139.738;2022-08-19T00:22:06;99329.84;;;32.96;35.43
9415;BME280;4746;35.664;139.738;2022-08-19T00:24:35;99319.88;;;32.98;35.05
9415;BME280;4746;35.664;139.738;2022-08-19T00:27:05;99313.44;;;33.00;35.19
9415;BME280;4746;35.664;139.738;2022-08-19T00:29:32;99321.28;;;33.02;34.98
9415;BME280;4746;35.664;139.738;2022-08-19T00:32:01;99322.66;;;33.06;35.31
9415;BME280;4746;35.664;139.738;2022-08-19T00:34:29;99327.81;;;33.07;34.86
9415;BME280;4746;35.664;139.738;2022-08-19T00:36:57;99328.19;;;33.12;34.57
9415;BME280;4746;35.664;139.738;2022-08-19T00:39:26;99330.41;;;33.17;34.95
9415;BME280;4746;35.664;139.738;2022-08-19T00:41:54;99322.81;;;33.21;34.60
9415;BME280;4746;35.664;139.738;2022-08-19T00:44:27;99320.53;;;33.26;34.71
9415;BME280;4746;35.664;139.738;2022-08-19T00:46:57;99328.56;;;33.34;34.89
9415;BME280;4746;35.664;139.738;2022-08-19T00:49:34;99325.47;;;33.39;34.58
9415;BME280;4746;35.664;139.738;2022-08-19T00:52:13;99328.34;;;33.45;34.36
9415;BME280;4746;35.664;139.738;2022-08-19T00:54:43;99330.69;;;33.48;34.40
9415;BME280;4746;35.664;139.738;2022-08-19T00:57:17;99311.19;;;33.57;34.16
9415;BME280;4746;35.664;139.738;2022-08-19T00:59:48;99324.84;;;33.62;33.80
9415;BME280;4746;35.664;139.738;2022-08-19T01:02:19;99321.88;;;33.65;34.00
9415;BME280;4746;35.664;139.738;2022-08-19T01:04:47;99315.16;;;33.79;33.85
9415;BME280;4746;35.664;139.738;2022-08-19T01:07:15;99314.00;;;33.81;33.20
9415;BME280;4746;35.664;139.738;2022-08-19T01:09:43;99312.19;;;33.82;32.90
9415;BME280;4746;35.664;139.738;2022-08-19T01:12:11;99308.53;;;33.83;32.62
9415;BME280;4746;35.664;139.738;2022-08-19T01:14:40;99305.06;;;33.90;33.01
9415;BME280;4746;35.664;139.738;2022-08-19T01:17:13;99298.50;;;34.02;32.62
9415;BME280;4746;35.664;139.738;2022-08-19T01:19:45;99298.13;;;34.14;32.78
9415;BME280;4746;35.664;139.738;2022-08-19T01:22:26;99297.16;;;34.23;32.64
9415;BME280;4746;35.664;139.738;2022-08-19T01:24:55;99294.81;;;34.20;32.93
9415;BME280;4746;35.664;139.738;2022-08-19T01:27:22;99292.00;;;34.22;32.74
9415;BME280;4746;35.664;139.738;2022-08-19T01:29:50;99281.53;;;34.28;32.99
9415;BME280;4746;35.664;139.738;2022-08-19T01:32:18;99289.69;;;34.27;33.32
9415;BME280;4746;35.664;139.738;2022-08-19T01:34:46;99284.53;;;34.25;32.64
9415;BME280;4746;35.664;139.738;2022-08-19T01:37:15;99280.53;;;34.29;32.86
9415;BME280;4746;35.664;139.738;2022-08-19T01:39:44;99281.88;;;34.33;32.66
9415;BME280;4746;35.664;139.738;2022-08-19T01:42:11;99272.59;;;34.37;32.82
9415;BME280;4746;35.664;139.738;2022-08-19T01:44:40;99265.13;;;34.49;33.43
9415;BME280;4746;35.664;139.738;2022-08-19T01:47:09;99265.53;;;34.62;32.83
9415;BME280;4746;35.664;139.738;2022-08-19T01:49:37;99263.22;;;34.66;32.85
9415;BME280;4746;35.664;139.738;2022-08-19T01:52:06;99260.91;;;34.71;33.22
9415;BME280;4746;35.664;139.738;2022-08-19T01:54:34;99263.94;;;34.76;33.25
9415;BME280;4746;35.664;139.738;2022-08-19T01:57:10;99260.28;;;34.93;32.70
9415;BME280;4746;35.664;139.738;2022-08-19T01:59:41;99252.63;;;34.98;32.62
9415;BME280;4746;35.664;139.738;2022-08-19T02:02:10;99250.31;;;35.03;32.91
9415;BME280;4746;35.664;139.738;2022-08-19T02:04:38;99250.00;;;35.06;32.64
9415;BME280;4746;35.664;139.738;2022-08-19T02:07:07;99248.34;;;35.05;32.32
9415;BME280;4746;35.664;139.738;2022-08-19T02:09:34;99243.66;;;34.99;32.28
9415;BME280;4746;35.664;139.738;2022-08-19T02:12:04;99238.34;;;34.99;32.44
9415;BME280;4746;35.664;139.738;2022-08-19T02:14:36;99238.00;;;35.02;32.48
9415;BME280;4746;35.664;139.738;2022-08-19T02:17:04;99229.47;;;34.99;32.79
9415;BME280;4746;35.664;139.738;2022-08-19T02:19:32;99226.69;;;35.08;32.57
9415;BME280;4746;35.664;139.738;2022-08-19T02:22:00;99222.34;;;35.23;32.80
9415;BME280;4746;35.664;139.738;2022-08-19T02:24:28;99226.00;;;35.30;32.29
9415;BME280;4746;35.664;139.738;2022-08-19T02:26:56;99214.34;;;35.47;31.98
9415;BME280;4746;35.664;139.738;2022-08-19T02:29:24;99220.47;;;35.71;32.23
9415;BME280;4746;35.664;139.738;2022-08-19T02:31:51;99209.91;;;35.94;31.80
9415;BME280;4746;35.664;139.738;2022-08-19T02:34:19;99210.94;;;36.23;31.61
9415;BME280;4746;35.664;139.738;2022-08-19T02:36:46;99204.97;;;36.51;31.12
9415;BME280;4746;35.664;139.738;2022-08-19T02:39:14;99210.25;;;36.81;30.69
9415;BME280;4746;35.664;139.738;2022-08-19T02:41:42;99197.50;;;37.14;30.81
9415;BME280;4746;35.664;139.738;2022-08-19T02:44:09;99193.63;;;37.39;30.60
9415;BME280;4746;35.664;139.738;2022-08-19T02:46:37;99189.47;;;37.51;31.14
9415;BME280;4746;35.664;139.738;2022-08-19T02:49:07;99193.97;;;37.64;30.46
9415;BME280;4746;35.664;139.738;2022-08-19T02:51:41;99198.47;;;37.86;30.40
9415;BME280;4746;35.664;139.738;2022-08-19T02:54:11;99192.63;;;37.97;30.69
9415;BME280;4746;35.664;139.738;2022-08-19T02:56:41;99187.06;;;38.13;30.37
9415;BME280;4746;35.664;139.738;2022-08-19T02:59:09;99193.53;;;38.33;29.95
9415;BME280;4746;35.664;139.738;2022-08-19T03:01:40;99191.31;;;38.57;29.77
9415;BME280;4746;35.664;139.738;2022-08-19T03:04:12;99182.09;;;38.60;29.10
9415;BME280;4746;35.664;139.738;2022-08-19T03:06:44;99184.78;;;38.60;29.22
9415;BME280;4746;35.664;139.738;2022-08-19T03:09:14;99186.28;;;38.69;28.94
9415;BME280;4746;35.664;139.738;2022-08-19T03:11:42;99191.41;;;38.85;28.95
9415;BME280;4746;35.664;139.738;2022-08-19T03:14:10;99183.38;;;39.05;28.44
9415;BME280;4746;35.664;139.738;2022-08-19T03:16:49;99192.25;;;39.33;28.54
9415;BME280;4746;35.664;139.738;2022-08-19T03:19:19;99182.81;;;39.37;28.66
9415;BME280;4746;35.664;139.738;2022-08-19T03:21:49;99176.94;;;39.48;27.78
9415;BME280;4746;35.664;139.738;2022-08-19T03:24:18;99173.91;;;39.58;27.24
9415;BME280;4746;35.664;139.738;2022-08-19T03:26:50;99177.00;;;39.61;27.36
9415;BME280;4746;35.664;139.738;2022-08-19T03:29:19;99166.22;;;39.55;27.57
9415;BME280;4746;35.664;139.738;2022-08-19T03:31:47;99168.09;;;39.54;27.74
9415;BME280;4746;35.664;139.738;2022-08-19T03:34:20;99169.75;;;39.55;27.24
9415;BME280;4746;35.664;139.738;2022-08-19T03:36:48;99168.56;;;39.64;27.18
9415;BME280;4746;35.664;139.738;2022-08-19T03:39:16;99163.91;;;39.79;27.05
9415;BME280;4746;35.664;139.738;2022-08-19T03:41:46;99157.16;;;39.89;26.62
9415;BME280;4746;35.664;139.738;2022-08-19T03:44:21;99160.75;;;40.09;27.03
9415;BME280;4746;35.664;139.738;2022-08-19T03:46:59;99158.38;;;40.27;26.58
9415;BME280;4746;35.664;139.738;2022-08-19T03:49:30;99157.13;;;40.30;26.21
9415;BME280;4746;35.664;139.738;2022-08-19T03:51:59;99152.19;;;40.33;25.92
9415;BME280;4746;35.664;139.738;2022-08-19T03:54:28;99152.19;;;40.40;26.08
9415;BME280;4746;35.664;139.738;2022-08-19T03:56:57;99144.75;;;40.42;25.88
9415;BME280;4746;35.664;139.738;2022-08-19T03:59:32;99149.09;;;40.49;26.10
9415;BME280;4746;35.664;139.738;2022-08-19T04:02:07;99136.94;;;40.59;26.14
9415;BME280;4746;35.664;139.738;2022-08-19T04:04:41;99139.25;;;40.69;25.70
9415;BME280;4746;35.664;139.738;2022-08-19T04:07:12;99125.81;;;40.88;25.88
9415;BME280;4746;35.664;139.738;2022-08-19T04:09:42;99126.22;;;40.98;25.28
9415;BME280;4746;35.664;139.738;2022-08-19T04:12:10;99130.81;;;41.11;25.04
9415;BME280;4746;35.664;139.738;2022-08-19T04:14:38;99121.00;;;41.35;24.85
9415;BME280;4746;35.664;139.738;2022-08-19T04:17:06;99117.09;;;41.51;24.77
9415;BME280;4746;35.664;139.738;2022-08-19T04:19:36;99114.53;;;41.69;25.03
9415;BME280;4746;35.664;139.738;2022-08-19T04:22:05;99122.38;;;41.77;24.96
9415;BME280;4746;35.664;139.738;2022-08-19T04:24:35;99124.00;;;41.97;24.42
9415;BME280;4746;35.664;139.738;2022-08-19T04:27:03;99111.91;;;42.12;24.43
9415;BME280;4746;35.664;139.738;2022-08-19T04:29:32;99111.59;;;42.33;23.98
9415;BME280;4746;35.664;139.738;2022-08-19T04:32:01;99110.94;;;42.38;24.44
9415;BME280;4746;35.664;139.738;2022-08-19T04:34:29;99112.47;;;42.52;24.34
9415;BME280;4746;35.664;139.738;2022-08-19T04:36:58;99111.50;;;42.77;24.65
9415;BME280;4746;35.664;139.738;2022-08-19T04:39:30;99110.41;;;43.09;24.31
9415;BME280;4746;35.664;139.738;2022-08-19T04:42:18;99115.59;;;43.28;24.02
9415;BME280;4746;35.664;139.738;2022-08-19T04:45:11;99113.81;;;43.40;23.96
9415;BME280;4746;35.664;139.738;2022-08-19T04:47:42;99115.38;;;43.54;24.03
9415;BME280;4746;35.664;139.738;2022-08-19T04:50:11;99109.22;;;43.47;24.02
9415;BME280;4746;35.664;139.738;2022-08-19T04:52:39;99098.19;;;43.48;23.66
9415;BME280;4746;35.664;139.738;2022-08-19T04:55:13;99097.50;;;43.53;24.16
9415;BME280;4746;35.664;139.738;2022-08-19T04:57:41;99097.88;;;43.56;23.65
9415;BME280;4746;35.664;139.738;2022-08-19T05:00:10;99089.88;;;43.68;24.21
9415;BME280;4746;35.664;139.738;2022-08-19T05:02:38;99095.19;;;43.74;23.58
9415;BME280;4746;35.664;139.738;2022-08-19T05:05:06;99072.53;;;43.57;23.24
9415;BME280;4746;35.664;139.738;2022-08-19T05:07:35;99093.47;;;43.20;23.92
9415;BME280;4746;35.664;139.738;2022-08-19T05:10:05;99081.22;;;42.75;24.44
9415;BME280;4746;35.664;139.738;2022-08-19T05:12:34;99102.53;;;42.52;24.76
9415;BME280;4746;35.664;139.738;2022-08-19T05:15:04;99086.78;;;42.18;24.64
9415;BME280;4746;35.664;139.738;2022-08-19T05:17:32;99079.66;;;41.87;25.18
9415;BME280;4746;35.664;139.738;2022-08-19T05:20:00;99088.34;;;42.01;24.53
9415;BME280;4746;35.664;139.738;2022-08-19T05:22:47;99086.47;;;42.70;23.53
9415;BME280;4746;35.664;139.738;2022-08-19T05:25:19;99078.34;;;43.37;22.92
9415;BME280;4746;35.664;139.738;2022-08-19T05:27:48;99089.09;;;43.79;22.04
9415;BME280;4746;35.664;139.738;2022-08-19T05:30:17;99082.84;;;43.96;21.90
9415;BME280;4746;35.664;139.738;2022-08-19T05:32:45;99077.41;;;43.85;21.72
9415;BME280;4746;35.664;139.738;2022-08-19T05:35:12;99095.19;;;43.74;21.68
9415;BME280;4746;35.664;139.738;2022-08-19T05:37:40;99092.38;;;43.81;21.65
9415;BME280;4746;35.664;139.738;2022-08-19T05:40:09;99086.03;;;43.75;22.27
9415;BME280;4746;35.664;139.738;2022-08-19T05:42:37;99088.38;;;44.19;21.45
9415;BME280;4746;35.664;139.738;2022-08-19T05:45:05;99091.84;;;44.89;20.39
9415;BME280;4746;35.664;139.738;2022-08-19T05:47:33;99081.38;;;45.50;19.57
9415;BME280;4746;35.664;139.738;2022-08-19T05:50:01;99081.34;;;45.73;19.47
9415;BME280;4746;35.664;139.738;2022-08-19T05:52:29;99074.91;;;45.51;19.79
9415;BME280;4746;35.664;139.738;2022-08-19T05:54:56;99068.28;;;45.59;19.15
9415;BME280;4746;35.664;139.738;2022-08-19T05:57:25;99076.56;;;45.91;18.90
9415;BME280;4746;35.664;139.738;2022-08-19T05:59:55;99070.78;;;47.42;17.85
9415;BME280;4746;35.664;139.738;2022-08-19T06:02:27;99069.50;;;47.28;17.50
9415;BME280;4746;35.664;139.738;2022-08-19T06:04:55;99074.28;;;46.55;17.01
9415;BME280;4746;35.664;139.738;2022-08-19T06:07:23;99074.28;;;46.00;17.82
9415;BME280;4746;35.664;139.738;2022-08-19T06:09:51;99065.59;;;45.47;18.50
9415;BME280;4746;35.664;139.738;2022-08-19T06:12:19;99056.81;;;45.17;19.08
9415;BME280;4746;35.664;139.738;2022-08-19T06:14:47;99069.66;;;46.12;18.27
9415;BME280;4746;35.664;139.738;2022-08-19T06:17:17;99065.50;;;48.47;17.07
9415;BME280;4746;35.664;139.738;2022-08-19T06:19:44;99079.13;;;50.47;15.60
9415;BME280;4746;35.664;139.738;2022-08-19T06:22:14;99063.09;;;51.83;14.80
9415;BME280;4746;35.664;139.738;2022-08-19T06:24:41;99064.13;;;52.73;13.65
9415;BME280;4746;35.664;139.738;2022-08-19T06:27:09;99069.25;;;53.60;13.72
9415;BME280;4746;35.664;139.738;2022-08-19T06:29:38;99060.00;;;54.34;13.41
9415;BME280;4746;35.664;139.738;2022-08-19T06:32:05;99074.47;;;55.03;13.08
9415;BME280;4746;35.664;139.738;2022-08-19T06:34:35;99062.09;;;55.46;13.06
9415;BME280;4746;35.664;139.738;2022-08-19T06:37:02;99073.31;;;55.63;13.24
9415;BME280;4746;35.664;139.738;2022-08-19T06:39:36;99083.09;;;55.96;13.37
9415;BME280;4746;35.664;139.738;2022-08-19T06:42:07;99069.63;;;54.50;14.42
9415;BME280;4746;35.664;139.738;2022-08-19T06:44:40;99079.31;;;54.29;15.18
9415;BME280;4746;35.664;139.738;2022-08-19T06:47:12;99075.63;;;52.37;16.96
9415;BME280;4746;35.664;139.738;2022-08-19T06:49:40;99090.75;;;52.30;17.42
9415;BME280;4746;35.664;139.738;2022-08-19T06:52:09;99095.19;;;52.59;17.19
9415;BME280;4746;35.664;139.738;2022-08-19T06:54:41;99091.75;;;53.33;16.65
9415;BME280;4746;35.664;139.738;2022-08-19T06:57:11;99106.38;;;53.76;16.87
9415;BME280;4746;35.664;139.738;2022-08-19T06:59:41;99112.22;;;53.17;17.08
9415;BME280;4746;35.664;139.738;2022-08-19T07:02:09;99108.75;;;53.07;17.60
9415;BME280;4746;35.664;139.738;2022-08-19T07:04:37;99103.44;;;53.20;17.59
9415;BME280;4746;35.664;139.738;2022-08-19T07:07:11;99094.50;;;53.38;17.60
9415;BME280;4746;35.664;139.738;2022-08-19T07:09:43;99092.88;;;53.56;16.90
9415;BME280;4746;35.664;139.738;2022-08-19T07:12:13;99096.56;;;53.46;17.18
9415;BME280;4746;35.664;139.738;2022-08-19T07:14:44;99098.66;;;53.78;17.16
9415;BME280;4746;35.664;139.738;2022-08-19T07:17:13;99109.41;;;53.97;17.10
9415;BME280;4746;35.664;139.738;2022-08-19T07:19:42;99120.91;;;53.53;17.38
9415;BME280;4746;35.664;139.738;2022-08-19T07:22:10;99124.53;;;53.20;17.83
9415;BME280;4746;35.664;139.738;2022-08-19T07:24:39;99111.50;;;52.79;17.74
9415;BME280;4746;35.664;139.738;2022-08-19T07:27:07;99090.72;;;53.06;18.11
9415;BME280;4746;35.664;139.738;2022-08-19T07:29:37;99092.47;;;53.44;17.83
9415;BME280;4746;35.664;139.738;2022-08-19T07:32:06;99100.84;;;53.81;17.15
9415;BME280;4746;35.664;139.738;2022-08-19T07:34:36;99106.31;;;54.22;16.96
9415;BME280;4746;35.664;139.738;2022-08-19T07:37:07;99104.00;;;54.11;16.99
9415;BME280;4746;35.664;139.738;2022-08-19T07:39:38;99133.22;;;53.79;17.80
9415;BME280;4746;35.664;139.738;2022-08-19T07:42:09;99100.94;;;53.47;17.42
9415;BME280;4746;35.664;139.738;2022-08-19T07:44:38;99107.78;;;53.50;17.25
9415;BME280;4746;35.664;139.738;2022-08-19T07:47:06;99115.38;;;53.29;17.37
9415;BME280;4746;35.664;139.738;2022-08-19T07:49:34;99097.81;;;53.02;17.61
9415;BME280;4746;35.664;139.738;2022-08-19T07:52:07;99108.84;;;53.25;17.50
9415;BME280;4746;35.664;139.738;2022-08-19T07:54:38;99096.50;;;53.28;17.45
9415;BME280;4746;35.664;139.738;2022-08-19T07:57:07;99120.31;;;53.27;17.50
9415;BME280;4746;35.664;139.738;2022-08-19T07:59:36;99130.59;;;53.17;17.21
9415;BME280;4746;35.664;139.738;2022-08-19T08:02:05;99110.41;;;53.08;17.31
9415;BME280;4746;35.664;139.738;2022-08-19T08:04:32;99108.53;;;52.70;17.51
9415;BME280;4746;35.664;139.738;2022-08-19T08:07:18;99119.03;;;50.58;19.21
9415;BME280;4746;35.664;139.738;2022-08-19T08:10:06;99131.38;;;48.75;20.20
9415;BME280;4746;35.664;139.738;2022-08-19T08:12:39;99126.94;;;46.87;22.22
9415;BME280;4746;35.664;139.738;2022-08-19T08:15:13;99133.06;;;45.14;23.78
9415;BME280;4746;35.664;139.738;2022-08-19T08:17:44;99124.50;;;43.53;25.42
9415;BME280;4746;35.664;139.738;2022-08-19T08:20:14;99125.84;;;42.40;27.00
9415;BME280;4746;35.664;139.738;2022-08-19T08:22:48;99136.94;;;41.63;28.21
9415;BME280;4746;35.664;139.738;2022-08-19T08:25:36;99127.97;;;42.32;27.57
9415;BME280;4746;35.664;139.738;2022-08-19T08:28:05;99136.19;;;43.05;26.87
9415;BME280;4746;35.664;139.738;2022-08-19T08:30:35;99137.16;;;43.35;26.17
9415;BME280;4746;35.664;139.738;2022-08-19T08:33:04;99135.91;;;43.13;26.56
9415;BME280;4746;35.664;139.738;2022-08-19T08:35:31;99155.47;;;41.96;27.27
9415;BME280;4746;35.664;139.738;2022-08-19T08:38:00;99124.25;;;41.76;27.84
9415;BME280;4746;35.664;139.738;2022-08-19T08:40:49;99130.44;;;42.33;27.33
9415;BME280;4746;35.664;139.738;2022-08-19T08:43:34;99136.50;;;42.66;27.33
9415;BME280;4746;35.664;139.738;2022-08-19T08:46:07;99129.84;;;42.93;26.49
9415;BME280;4746;35.664;139.738;2022-08-19T08:48:54;99135.94;;;42.82;27.08
9415;BME280;4746;35.664;139.738;2022-08-19T08:51:50;99138.47;;;42.46;27.04
9415;BME280;4746;35.664;139.738;2022-08-19T08:54:23;99135.09;;;42.13;27.77
9415;BME280;4746;35.664;139.738;2022-08-19T08:56:53;99148.50;;;41.70;28.12
9415;BME280;4746;35.664;139.738;2022-08-19T08:59:30;99152.25;;;40.65;28.98
9415;BME280;4746;35.664;139.738;2022-08-19T09:02:02;99152.22;;;39.59;30.85
9415;BME280;4746;35.664;139.738;2022-08-19T09:04:29;99149.16;;;38.87;32.17
9415;BME280;4746;35.664;139.738;2022-08-19T09:09:53;99168.72;;;37.67;33.86
9415;BME280;4746;35.664;139.738;2022-08-19T09:15:12;99175.53;;;36.59;35.07
9415;BME280;4746;35.664;139.738;2022-08-19T09:17:40;99182.78;;;36.12;36.79
9415;BME280;4746;35.664;139.738;2022-08-19T09:20:18;99179.72;;;35.85;37.07
9415;BME280;4746;35.664;139.738;2022-08-19T09:22:46;99183.50;;;35.60;38.25
9415;BME280;4746;35.664;139.738;2022-08-19T09:25:20;99183.03;;;35.33;38.31
9415;BME280;4746;35.664;139.738;2022-08-19T09:27:52;99188.88;;;35.05;39.04
9415;BME280;4746;35.664;139.738;2022-08-19T09:30:38;99188.03;;;34.80;39.19
9415;BME280;4746;35.664;139.738;2022-08-19T09:33:07;99191.66;;;34.56;39.46
9415;BME280;4746;35.664;139.738;2022-08-19T09:35:35;99204.22;;;34.38;39.83
9415;BME280;4746;35.664;139.738;2022-08-19T09:38:03;99200.19;;;34.18;40.19
9415;BME280;4746;35.664;139.738;2022-08-19T09:40:31;99182.88;;;34.06;40.51
9415;BME280;4746;35.664;139.738;2022-08-19T09:42:59;99198.41;;;33.93;41.41
9415;BME280;4746;35.664;139.738;2022-08-19T09:45:29;99194.03;;;33.84;41.61
9415;BME280;4746;35.664;139.738;2022-08-19T09:47:58;99195.00;;;33.75;41.69
9415;BME280;4746;35.664;139.738;2022-08-19T09:50:25;99195.63;;;33.69;42.54
9415;BME280;4746;35.664;139.738;2022-08-19T09:52:53;99219.13;;;33.56;42.60
9415;BME280;4746;35.664;139.738;2022-08-19T09:55:20;99222.38;;;33.42;43.07
9415;BME280;4746;35.664;139.738;2022-08-19T09:57:48;99218.94;;;33.32;43.22
9415;BME280;4746;35.664;139.738;2022-08-19T10:00:15;99211.22;;;33.21;43.33
9415;BME280;4746;35.664;139.738;2022-08-19T10:02:43;99209.88;;;33.17;43.34
9415;BME280;4746;35.664;139.738;2022-08-19T10:05:10;99214.50;;;33.16;43.59
9415;BME280;4746;35.664;139.738;2022-08-19T10:07:56;99226.44;;;33.12;43.76
9415;BME280;4746;35.664;139.738;2022-08-19T10:10:24;99223.41;;;33.07;44.00
9415;BME280;4746;35.664;139.738;2022-08-19T10:12:52;99231.81;;;33.02;44.24
9415;BME280;4746;35.664;139.738;2022-08-19T10:15:19;99225.44;;;32.95;44.72
9415;BME280;4746;35.664;139.738;2022-08-19T10:17:48;99247.81;;;32.93;44.55
9415;BME280;4746;35.664;139.738;2022-08-19T10:20:16;99248.13;;;32.90;44.61
9415;BME280;4746;35.664;139.738;2022-08-19T10:22:44;99243.13;;;32.87;45.09
9415;BME280;4746;35.664;139.738;2022-08-19T10:25:12;99257.53;;;32.84;45.35
9415;BME280;4746;35.664;139.738;2022-08-19T10:27:43;99247.69;;;32.77;45.46
9415;BME280;4746;35.664;139.738;2022-08-19T10:30:11;99250.25;;;32.69;45.62
9415;BME280;4746;35.664;139.738;2022-08-19T10:32:39;99250.31;;;32.59;45.62
9415;BME280;4746;35.664;139.738;2022-08-19T10:35:07;99250.75;;;32.55;46.21
9415;BME280;4746;35.664;139.738;2022-08-19T10:37:37;99249.47;;;32.59;46.06
9415;BME280;4746;35.664;139.738;2022-08-19T10:40:09;99261.34;;;32.55;46.24
9415;BME280;4746;35.664;139.738;2022-08-19T10:42:38;99262.63;;;32.51;46.35
9415;BME280;4746;35.664;139.738;2022-08-19T10:45:06;99274.22;;;32.50;46.19
9415;BME280;4746;35.664;139.738;2022-08-19T10:47:34;99260.56;;;32.45;46.57
9415;BME280;4746;35.664;139.738;2022-08-19T10:50:02;99263.22;;;32.45;46.95
9415;BME280;4746;35.664;139.738;2022-08-19T10:52:50;99265.44;;;32.49;46.71
9415;BME280;4746;35.664;139.738;2022-08-19T10:55:24;99260.81;;;32.51;46.35
9415;BME280;4746;35.664;139.738;2022-08-19T10:58:19;99276.31;;;32.46;46.86
9415;BME280;4746;35.664;139.738;2022-08-19T11:00:58;99272.16;;;32.44;46.55
9415;BME280;4746;35.664;139.738;2022-08-19T11:03:27;99274.56;;;32.38;47.27
9415;BME280;4746;35.664;139.738;2022-08-19T11:06:09;99280.09;;;32.44;46.90
9415;BME280;4746;35.664;139.738;2022-08-19T11:08:38;99279.72;;;32.39;47.18
9415;BME280;4746;35.664;139.738;2022-08-19T11:11:08;99280.44;;;32.41;47.25
9415;BME280;4746;35.664;139.738;2022-08-19T11:13:39;99280.28;;;32.42;47.06
9415;BME280;4746;35.664;139.738;2022-08-19T11:16:15;99289.75;;;32.45;47.41
9415;BME280;4746;35.664;139.738;2022-08-19T11:18:48;99291.41;;;32.46;47.22
9415;BME280;4746;35.664;139.738;2022-08-19T11:21:19;99282.47;;;32.47;47.80
9415;BME280;4746;35.664;139.738;2022-08-19T11:23:51;99286.13;;;32.46;47.66
9415;BME280;4746;35.664;139.738;2022-08-19T11:26:20;99282.09;;;32.42;47.73
9415;BME280;4746;35.664;139.738;2022-08-19T11:28:49;99281.56;;;32.39;47.87
9415;BME280;4746;35.664;139.738;2022-08-19T11:31:26;99280.44;;;32.41;48.13
9415;BME280;4746;35.664;139.738;2022-08-19T11:34:00;99283.34;;;32.38;48.10
9415;BME280;4746;35.664;139.738;2022-08-19T11:36:28;99279.66;;;32.31;48.31
9415;BME280;4746;35.664;139.738;2022-08-19T11:38:56;99272.13;;;32.27;48.14
9415;BME280;4746;35.664;139.738;2022-08-19T11:41:25;99279.22;;;32.26;48.14
9415;BME280;4746;35.664;139.738;2022-08-19T11:43:54;99284.03;;;32.23;48.44
9415;BME280;4746;35.664;139.738;2022-08-19T11:46:26;99280.34;;;32.24;48.45
9415;BME280;4746;35.664;139.738;2022-08-19T11:48:58;99295.47;;;32.23;48.50
9415;BME280;4746;35.664;139.738;2022-08-19T11:51:28;99291.56;;;32.18;49.12
9415;BME280;4746;35.664;139.738;2022-08-19T11:53:58;99288.34;;;32.14;48.96
9415;BME280;4746;35.664;139.738;2022-08-19T11:56:27;99283.06;;;32.14;49.25
9415;BME280;4746;35.664;139.738;2022-08-19T11:58:55;99278.88;;;32.12;49.63
9415;BME280;4746;35.664;139.738;2022-08-19T12:01:26;99293.00;;;32.12;49.51
9415;BME280;4746;35.664;139.738;2022-08-19T12:03:56;99287.97;;;32.09;49.77
9415;BME280;4746;35.664;139.738;2022-08-19T12:06:31;99293.59;;;32.06;49.70
9415;BME280;4746;35.664;139.738;2022-08-19T12:09:05;99281.69;;;32.01;49.89
9415;BME280;4746;35.664;139.738;2022-08-19T12:11:34;99276.16;;;31.94;50.14
9415;BME280;4746;35.664;139.738;2022-08-19T12:14:03;99276.31;;;31.93;50.30
9415;BME280;4746;35.664;139.738;2022-08-19T12:16:32;99273.19;;;31.97;50.05
9415;BME280;4746;35.664;139.738;2022-08-19T12:19:01;99267.63;;;32.00;50.16
9415;BME280;4746;35.664;139.738;2022-08-19T12:21:34;99262.59;;;32.07;50.02
9415;BME280;4746;35.664;139.738;2022-08-19T12:24:04;99265.78;;;32.10;50.57
9415;BME280;4746;35.664;139.738;2022-08-19T12:26:32;99261.44;;;32.09;50.12
9415;BME280;4746;35.664;139.738;2022-08-19T12:29:00;99255.47;;;32.07;50.25
9415;BME280;4746;35.664;139.738;2022-08-19T12:31:29;99244.03;;;32.07;50.29
9415;BME280;4746;35.664;139.738;2022-08-19T12:33:57;99248.34;;;32.08;50.24
9415;BME280;4746;35.664;139.738;2022-08-19T12:36:25;99251.69;;;32.10;50.40
9415;BME280;4746;35.664;139.738;2022-08-19T12:38:53;99241.22;;;32.08;50.30
9415;BME280;4746;35.664;139.738;2022-08-19T12:41:21;99252.69;;;32.09;50.23
9415;BME280;4746;35.664;139.738;2022-08-19T12:43:49;99265.06;;;32.08;50.49
9415;BME280;4746;35.664;139.738;2022-08-19T12:46:19;99257.00;;;32.10;50.04
9415;BME280;4746;35.664;139.738;2022-08-19T12:48:47;99254.34;;;32.10;50.05
9415;BME280;4746;35.664;139.738;2022-08-19T12:51:17;99245.25;;;32.12;50.11
9415;BME280;4746;35.664;139.738;2022-08-19T12:53:48;99246.09;;;32.13;50.51
9415;BME280;4746;35.664;139.738;2022-08-19T12:56:17;99244.41;;;32.12;50.62
9415;BME280;4746;35.664;139.738;2022-08-19T12:58:45;99236.59;;;32.10;51.06
9415;BME280;4746;35.664;139.738;2022-08-19T13:01:15;99239.09;;;32.12;50.92
9415;BME280;4746;35.664;139.738;2022-08-19T13:03:46;99243.59;;;32.11;50.71
9415;BME280;4746;35.664;139.738;2022-08-19T13:06:14;99242.06;;;32.09;50.72
9415;BME280;4746;35.664;139.738;2022-08-19T13:08:42;99240.25;;;32.09;50.49
9415;BME280;4746;35.664;139.738;2022-08-19T13:11:14;99246.09;;;32.13;50.61
9415;BME280;4746;35.664;139.738;2022-08-19T13:13:47;99238.97;;;32.13;50.35
9415;BME280;4746;35.664;139.738;2022-08-19T13:16:18;99238.28;;;32.11;50.52
9415;BME280;4746;35.664;139.738;2022-08-19T13:18:47;99232.97;;;32.11;50.53
9415;BME280;4746;35.664;139.738;2022-08-19T13:21:17;99232.16;;;32.11;50.56
9415;BME280;4746;35.664;139.738;2022-08-19T13:23:47;99234.94;;;32.09;50.75